sensor_id;sensor_type;location;lat;lon;timestamp;P1;durP1;ratioP1;P2;durP2;ratioP2
5277;SDS011;2662;51.194;6.614;2022-10-22T00:02:10;15.07;;;4.80;;
5277;SDS011;2662;51.194;6.614;2022-10-22T00:04:41;12.67;;;4.70;;
5277;SDS011;2662;51.194;6.614;2022-10-22T00:07:08;7.07;;;4.50;;
5277;SDS011;2662;51.194;6.614;2022-10-22T00:09:34;10.83;;;4.83;;
5277;SDS011;2662;51.194;6.614;2022-10-22T00:12:01;7.23;;;4.60;;
5277;SDS011;2662;51.194;6.614;2022-10-22T00:14:28;7.37;;;4.30;;
5277;SDS011;2662;51.194;6.614;2022-10-22T00:16:55;13.03;;;4.90;;
5277;SDS011;2662;51.194;6.614;2022-10-22T00:19:25;4.90;;;3.67;;
5277;SDS011;2662;51.194;6.614;2022-10-22T00:21:53;12.33;;;4.37;;
5277;SDS011;2662;51.194;6.614;2022-10-22T00:24:19;6.93;;;4.17;;
5277;SDS011;2662;51.194;6.614;2022-10-22T00:26:46;9.43;;;4.37;;
5277;SDS011;2662;51.194;6.614;2022-10-22T00:29:13;12.10;;;5.00;;
5277;SDS011;2662;51.194;6.614;2022-10-22T00:31:42;10.97;;;4.33;;
5277;SDS011;2662;51.194;6.614;2022-10-22T00:34:13;9.20;;;4.23;;
5277;SDS011;2662;51.194;6.614;2022-10-22T00:36:40;10.53;;;3.57;;
5277;SDS011;2662;51.194;6.614;2022-10-22T00:39:08;6.40;;;4.83;;
5277;SDS011;2662;51.194;6.614;2022-10-22T00:41:37;7.10;;;4.40;;
5277;SDS011;2662;51.194;6.614;2022-10-22T00:44:04;9.83;;;4.83;;
5277;SDS011;2662;51.194;6.614;2022-10-22T00:46:31;15.70;;;5.37;;
5277;SDS011;2662;51.194;6.614;2022-10-22T00:48:59;22.03;;;5.53;;
5277;SDS011;2662;51.194;6.614;2022-10-22T00:51:29;10.83;;;5.07;;
5277;SDS011;2662;51.194;6.614;2022-10-22T00:53:59;17.00;;;5.97;;
5277;SDS011;2662;51.194;6.614;2022-10-22T00:56:30;9.27;;;4.43;;
5277;SDS011;2662;51.194;6.614;2022-10-22T00:58:58;9.83;;;5.33;;
5277;SDS011;2662;51.194;6.614;2022-10-22T01:01:28;9.83;;;5.00;;
5277;SDS011;2662;51.194;6.614;2022-10-22T01:03:56;6.83;;;4.63;;
5277;SDS011;2662;51.194;6.614;2022-10-22T01:06:24;12.83;;;5.67;;
5277;SDS011;2662;51.194;6.614;2022-10-22T01:08:54;8.70;;;5.10;;
5277;SDS011;2662;51.194;6.614;2022-10-22T01:11:31;7.80;;;5.30;;
5277;SDS011;2662;51.194;6.614;2022-10-22T01:14:11;8.37;;;5.20;;
5277;SDS011;2662;51.194;6.614;2022-10-22T01:16:42;8.00;;;4.80;;
5277;SDS011;2662;51.194;6.614;2022-10-22T01:19:33;6.27;;;4.60;;
5277;SDS011;2662;51.194;6.614;2022-10-22T01:22:09;11.17;;;5.30;;
5277;SDS011;2662;51.194;6.614;2022-10-22T01:24:52;8.43;;;5.20;;
5277;SDS011;2662;51.194;6.614;2022-10-22T01:27:28;9.67;;;5.23;;
5277;SDS011;2662;51.194;6.614;2022-10-22T01:30:01;10.70;;;5.43;;
5277;SDS011;2662;51.194;6.614;2022-10-22T01:32:31;16.37;;;5.70;;
5277;SDS011;2662;51.194;6.614;2022-10-22T01:35:04;9.73;;;5.10;;
5277;SDS011;2662;51.194;6.614;2022-10-22T01:37:35;7.67;;;4.70;;
5277;SDS011;2662;51.194;6.614;2022-10-22T01:40:06;10.03;;;5.60;;
5277;SDS011;2662;51.194;6.614;2022-10-22T01:42:35;11.13;;;4.87;;
5277;SDS011;2662;51.194;6.614;2022-10-22T01:45:09;11.83;;;5.20;;
5277;SDS011;2662;51.194;6.614;2022-10-22T01:47:38;13.43;;;5.27;;
5277;SDS011;2662;51.194;6.614;2022-10-22T01:50:18;15.13;;;5.30;;
5277;SDS011;2662;51.194;6.614;2022-10-22T01:53:15;22.77;;;4.70;;
5277;SDS011;2662;51.194;6.614;2022-10-22T01:55:51;15.00;;;5.30;;
5277;SDS011;2662;51.194;6.614;2022-10-22T01:58:29;9.90;;;5.33;;
5277;SDS011;2662;51.194;6.614;2022-10-22T02:01:05;7.90;;;5.00;;
5277;SDS011;2662;51.194;6.614;2022-10-22T02:03:39;9.07;;;5.30;;
5277;SDS011;2662;51.194;6.614;2022-10-22T02:06:13;20.73;;;6.07;;
5277;SDS011;2662;51.194;6.614;2022-10-22T02:08:43;17.80;;;5.83;;
5277;SDS011;2662;51.194;6.614;2022-10-22T02:11:12;15.23;;;5.77;;
5277;SDS011;2662;51.194;6.614;2022-10-22T02:13:40;17.63;;;5.97;;
5277;SDS011;2662;51.194;6.614;2022-10-22T02:16:12;15.07;;;5.70;;
5277;SDS011;2662;51.194;6.614;2022-10-22T02:18:41;12.40;;;5.80;;
5277;SDS011;2662;51.194;6.614;2022-10-22T02:21:11;16.00;;;4.50;;
5277;SDS011;2662;51.194;6.614;2022-10-22T02:23:39;11.83;;;5.27;;
5277;SDS011;2662;51.194;6.614;2022-10-22T02:26:06;20.73;;;5.20;;
5277;SDS011;2662;51.194;6.614;2022-10-22T02:28:41;15.97;;;5.60;;
5277;SDS011;2662;51.194;6.614;2022-10-22T02:31:14;15.37;;;5.47;;
5277;SDS011;2662;51.194;6.614;2022-10-22T02:33:44;12.50;;;5.27;;
5277;SDS011;2662;51.194;6.614;2022-10-22T02:36:13;18.13;;;5.97;;
5277;SDS011;2662;51.194;6.614;2022-10-22T02:38:41;10.80;;;5.43;;
5277;SDS011;2662;51.194;6.614;2022-10-22T02:41:09;11.20;;;5.57;;
5277;SDS011;2662;51.194;6.614;2022-10-22T02:43:39;20.40;;;4.93;;
5277;SDS011;2662;51.194;6.614;2022-10-22T02:46:07;10.00;;;5.13;;
5277;SDS011;2662;51.194;6.614;2022-10-22T02:48:35;8.60;;;5.40;;
5277;SDS011;2662;51.194;6.614;2022-10-22T02:51:02;8.20;;;5.20;;
5277;SDS011;2662;51.194;6.614;2022-10-22T02:53:29;12.80;;;5.67;;
5277;SDS011;2662;51.194;6.614;2022-10-22T02:55:56;26.97;;;5.70;;
5277;SDS011;2662;51.194;6.614;2022-10-22T02:58:23;22.63;;;6.10;;
5277;SDS011;2662;51.194;6.614;2022-10-22T03:00:49;10.60;;;5.23;;
5277;SDS011;2662;51.194;6.614;2022-10-22T03:03:16;16.93;;;5.70;;
5277;SDS011;2662;51.194;6.614;2022-10-22T03:05:44;15.17;;;5.53;;
5277;SDS011;2662;51.194;6.614;2022-10-22T03:08:11;10.20;;;5.40;;
5277;SDS011;2662;51.194;6.614;2022-10-22T03:10:38;11.40;;;6.20;;
5277;SDS011;2662;51.194;6.614;2022-10-22T03:13:04;11.07;;;5.00;;
5277;SDS011;2662;51.194;6.614;2022-10-22T03:15:31;7.57;;;5.30;;
5277;SDS011;2662;51.194;6.614;2022-10-22T03:17:58;21.33;;;6.83;;
5277;SDS011;2662;51.194;6.614;2022-10-22T03:20:24;16.80;;;6.00;;
5277;SDS011;2662;51.194;6.614;2022-10-22T03:22:52;13.60;;;5.60;;
5277;SDS011;2662;51.194;6.614;2022-10-22T03:25:21;9.87;;;5.33;;
5277;SDS011;2662;51.194;6.614;2022-10-22T03:27:50;14.50;;;5.53;;
5277;SDS011;2662;51.194;6.614;2022-10-22T03:30:18;21.77;;;6.30;;
5277;SDS011;2662;51.194;6.614;2022-10-22T03:32:45;10.20;;;5.50;;
5277;SDS011;2662;51.194;6.614;2022-10-22T03:35:12;15.43;;;7.10;;
5277;SDS011;2662;51.194;6.614;2022-10-22T03:37:39;12.67;;;6.73;;
5277;SDS011;2662;51.194;6.614;2022-10-22T03:40:08;13.77;;;6.40;;
5277;SDS011;2662;51.194;6.614;2022-10-22T03:42:36;11.17;;;6.03;;
5277;SDS011;2662;51.194;6.614;2022-10-22T03:45:03;10.43;;;6.97;;
5277;SDS011;2662;51.194;6.614;2022-10-22T03:47:30;10.70;;;6.43;;
5277;SDS011;2662;51.194;6.614;2022-10-22T03:49:57;25.50;;;7.00;;
5277;SDS011;2662;51.194;6.614;2022-10-22T03:52:24;20.23;;;6.47;;
5277;SDS011;2662;51.194;6.614;2022-10-22T03:54:51;11.20;;;6.33;;
5277;SDS011;2662;51.194;6.614;2022-10-22T03:57:19;16.13;;;6.90;;
5277;SDS011;2662;51.194;6.614;2022-10-22T03:59:45;14.20;;;7.20;;
5277;SDS011;2662;51.194;6.614;2022-10-22T04:02:12;15.80;;;6.60;;
5277;SDS011;2662;51.194;6.614;2022-10-22T04:04:39;9.50;;;6.40;;
5277;SDS011;2662;51.194;6.614;2022-10-22T04:07:06;17.83;;;6.93;;
5277;SDS011;2662;51.194;6.614;2022-10-22T04:09:33;13.83;;;6.30;;
5277;SDS011;2662;51.194;6.614;2022-10-22T04:12:00;15.00;;;6.27;;
5277;SDS011;2662;51.194;6.614;2022-10-22T04:14:30;12.47;;;7.37;;
5277;SDS011;2662;51.194;6.614;2022-10-22T04:16:57;8.83;;;6.13;;
5277;SDS011;2662;51.194;6.614;2022-10-22T04:19:24;18.17;;;6.60;;
5277;SDS011;2662;51.194;6.614;2022-10-22T04:21:51;14.93;;;7.07;;
5277;SDS011;2662;51.194;6.614;2022-10-22T04:24:17;12.70;;;6.43;;
5277;SDS011;2662;51.194;6.614;2022-10-22T04:26:44;9.87;;;6.00;;
5277;SDS011;2662;51.194;6.614;2022-10-22T04:29:11;13.13;;;6.27;;
5277;SDS011;2662;51.194;6.614;2022-10-22T04:31:39;11.30;;;6.10;;
5277;SDS011;2662;51.194;6.614;2022-10-22T04:34:05;14.77;;;6.47;;
5277;SDS011;2662;51.194;6.614;2022-10-22T04:36:32;14.43;;;6.37;;
5277;SDS011;2662;51.194;6.614;2022-10-22T04:39:00;7.27;;;5.60;;
5277;SDS011;2662;51.194;6.614;2022-10-22T04:41:28;10.20;;;5.97;;
5277;SDS011;2662;51.194;6.614;2022-10-22T04:43:56;12.50;;;6.53;;
5277;SDS011;2662;51.194;6.614;2022-10-22T04:46:26;11.93;;;6.83;;
5277;SDS011;2662;51.194;6.614;2022-10-22T04:48:55;14.30;;;5.93;;
5277;SDS011;2662;51.194;6.614;2022-10-22T04:51:22;12.80;;;6.50;;
5277;SDS011;2662;51.194;6.614;2022-10-22T04:53:51;12.40;;;6.90;;
5277;SDS011;2662;51.194;6.614;2022-10-22T04:56:19;10.73;;;6.30;;
5277;SDS011;2662;51.194;6.614;2022-10-22T04:58:47;14.83;;;5.70;;
5277;SDS011;2662;51.194;6.614;2022-10-22T05:01:15;11.03;;;6.73;;
5277;SDS011;2662;51.194;6.614;2022-10-22T05:03:43;11.00;;;6.57;;
5277;SDS011;2662;51.194;6.614;2022-10-22T05:06:12;12.13;;;6.10;;
5277;SDS011;2662;51.194;6.614;2022-10-22T05:08:40;10.83;;;6.53;;
5277;SDS011;2662;51.194;6.614;2022-10-22T05:11:11;8.40;;;6.20;;
5277;SDS011;2662;51.194;6.614;2022-10-22T05:13:39;14.40;;;6.20;;
5277;SDS011;2662;51.194;6.614;2022-10-22T05:16:06;12.07;;;6.13;;
5277;SDS011;2662;51.194;6.614;2022-10-22T05:18:33;12.07;;;6.30;;
5277;SDS011;2662;51.194;6.614;2022-10-22T05:21:01;8.27;;;6.20;;
5277;SDS011;2662;51.194;6.614;2022-10-22T05:23:29;13.90;;;7.17;;
5277;SDS011;2662;51.194;6.614;2022-10-22T05:25:56;11.93;;;6.63;;
5277;SDS011;2662;51.194;6.614;2022-10-22T05:28:26;10.90;;;6.63;;
5277;SDS011;2662;51.194;6.614;2022-10-22T05:30:53;15.27;;;7.30;;
5277;SDS011;2662;51.194;6.614;2022-10-22T05:33:20;14.27;;;6.70;;
5277;SDS011;2662;51.194;6.614;2022-10-22T05:35:47;15.43;;;6.77;;
5277;SDS011;2662;51.194;6.614;2022-10-22T05:38:14;12.13;;;6.00;;
5277;SDS011;2662;51.194;6.614;2022-10-22T05:40:42;9.27;;;6.00;;
5277;SDS011;2662;51.194;6.614;2022-10-22T05:43:09;12.33;;;6.40;;
5277;SDS011;2662;51.194;6.614;2022-10-22T05:45:36;9.33;;;5.30;;
5277;SDS011;2662;51.194;6.614;2022-10-22T05:48:03;13.20;;;6.43;;
5277;SDS011;2662;51.194;6.614;2022-10-22T05:50:31;10.70;;;6.13;;
5277;SDS011;2662;51.194;6.614;2022-10-22T05:53:00;15.27;;;6.30;;
5277;SDS011;2662;51.194;6.614;2022-10-22T05:55:27;8.63;;;6.13;;
5277;SDS011;2662;51.194;6.614;2022-10-22T05:57:55;9.60;;;6.03;;
5277;SDS011;2662;51.194;6.614;2022-10-22T06:00:22;8.93;;;6.37;;
5277;SDS011;2662;51.194;6.614;2022-10-22T06:02:48;9.73;;;7.30;;
5277;SDS011;2662;51.194;6.614;2022-10-22T06:05:16;13.50;;;6.80;;
5277;SDS011;2662;51.194;6.614;2022-10-22T06:07:42;8.20;;;6.20;;
5277;SDS011;2662;51.194;6.614;2022-10-22T06:10:09;11.00;;;6.63;;
5277;SDS011;2662;51.194;6.614;2022-10-22T06:12:40;14.27;;;5.67;;
5277;SDS011;2662;51.194;6.614;2022-10-22T06:15:10;8.70;;;5.43;;
5277;SDS011;2662;51.194;6.614;2022-10-22T06:17:38;11.23;;;5.30;;
5277;SDS011;2662;51.194;6.614;2022-10-22T06:20:05;11.00;;;4.53;;
5277;SDS011;2662;51.194;6.614;2022-10-22T06:22:33;10.43;;;4.20;;
5277;SDS011;2662;51.194;6.614;2022-10-22T06:24:59;11.37;;;4.27;;
5277;SDS011;2662;51.194;6.614;2022-10-22T06:27:26;7.23;;;3.80;;
5277;SDS011;2662;51.194;6.614;2022-10-22T06:29:53;11.63;;;4.47;;
5277;SDS011;2662;51.194;6.614;2022-10-22T06:32:21;9.30;;;3.63;;
5277;SDS011;2662;51.194;6.614;2022-10-22T06:34:48;11.63;;;3.83;;
5277;SDS011;2662;51.194;6.614;2022-10-22T06:37:15;6.53;;;3.50;;
5277;SDS011;2662;51.194;6.614;2022-10-22T06:39:41;6.80;;;4.33;;
5277;SDS011;2662;51.194;6.614;2022-10-22T06:42:08;6.47;;;3.43;;
5277;SDS011;2662;51.194;6.614;2022-10-22T06:44:35;8.93;;;3.60;;
5277;SDS011;2662;51.194;6.614;2022-10-22T06:47:02;9.70;;;3.30;;
5277;SDS011;2662;51.194;6.614;2022-10-22T06:49:30;8.23;;;3.20;;
5277;SDS011;2662;51.194;6.614;2022-10-22T06:51:56;7.93;;;3.50;;
5277;SDS011;2662;51.194;6.614;2022-10-22T06:54:23;12.10;;;3.20;;
5277;SDS011;2662;51.194;6.614;2022-10-22T06:56:50;3.83;;;3.10;;
5277;SDS011;2662;51.194;6.614;2022-10-22T06:59:17;5.90;;;2.70;;
5277;SDS011;2662;51.194;6.614;2022-10-22T07:01:44;10.73;;;3.00;;
5277;SDS011;2662;51.194;6.614;2022-10-22T07:04:10;9.30;;;3.60;;
5277;SDS011;2662;51.194;6.614;2022-10-22T07:06:38;9.73;;;2.70;;
5277;SDS011;2662;51.194;6.614;2022-10-22T07:09:05;10.93;;;2.57;;
5277;SDS011;2662;51.194;6.614;2022-10-22T07:11:36;5.33;;;2.93;;
5277;SDS011;2662;51.194;6.614;2022-10-22T07:14:06;13.40;;;2.30;;
5277;SDS011;2662;51.194;6.614;2022-10-22T07:16:33;3.57;;;1.97;;
5277;SDS011;2662;51.194;6.614;2022-10-22T07:19:00;10.73;;;2.43;;
5277;SDS011;2662;51.194;6.614;2022-10-22T07:21:27;5.63;;;2.23;;
5277;SDS011;2662;51.194;6.614;2022-10-22T07:23:56;7.73;;;2.57;;
5277;SDS011;2662;51.194;6.614;2022-10-22T07:26:23;10.17;;;2.17;;
5277;SDS011;2662;51.194;6.614;2022-10-22T07:28:52;7.03;;;2.13;;
5277;SDS011;2662;51.194;6.614;2022-10-22T07:31:19;6.50;;;2.33;;
5277;SDS011;2662;51.194;6.614;2022-10-22T07:33:46;6.00;;;2.60;;
5277;SDS011;2662;51.194;6.614;2022-10-22T07:36:13;6.17;;;2.20;;
5277;SDS011;2662;51.194;6.614;2022-10-22T07:38:42;11.07;;;2.50;;
5277;SDS011;2662;51.194;6.614;2022-10-22T07:41:11;4.83;;;2.47;;
5277;SDS011;2662;51.194;6.614;2022-10-22T07:43:38;10.33;;;2.87;;
5277;SDS011;2662;51.194;6.614;2022-10-22T07:46:04;4.70;;;2.50;;
5277;SDS011;2662;51.194;6.614;2022-10-22T07:48:32;8.80;;;2.50;;
5277;SDS011;2662;51.194;6.614;2022-10-22T07:50:59;5.50;;;2.50;;
5277;SDS011;2662;51.194;6.614;2022-10-22T07:53:26;8.90;;;2.50;;
5277;SDS011;2662;51.194;6.614;2022-10-22T07:55:53;9.97;;;2.77;;
5277;SDS011;2662;51.194;6.614;2022-10-22T07:58:22;11.47;;;2.47;;
5277;SDS011;2662;51.194;6.614;2022-10-22T08:00:49;9.83;;;3.17;;
5277;SDS011;2662;51.194;6.614;2022-10-22T08:03:19;5.17;;;1.90;;
5277;SDS011;2662;51.194;6.614;2022-10-22T08:05:46;5.47;;;2.10;;
5277;SDS011;2662;51.194;6.614;2022-10-22T08:08:13;4.13;;;1.70;;
5277;SDS011;2662;51.194;6.614;2022-10-22T08:10:41;3.53;;;1.90;;
5277;SDS011;2662;51.194;6.614;2022-10-22T08:13:08;4.10;;;1.57;;
5277;SDS011;2662;51.194;6.614;2022-10-22T08:15:37;8.77;;;2.13;;
5277;SDS011;2662;51.194;6.614;2022-10-22T08:18:04;9.67;;;2.20;;
5277;SDS011;2662;51.194;6.614;2022-10-22T08:20:31;7.23;;;1.80;;
5277;SDS011;2662;51.194;6.614;2022-10-22T08:22:58;9.27;;;1.97;;
5277;SDS011;2662;51.194;6.614;2022-10-22T08:25:24;9.93;;;2.50;;
5277;SDS011;2662;51.194;6.614;2022-10-22T08:27:51;10.73;;;1.83;;
5277;SDS011;2662;51.194;6.614;2022-10-22T08:30:18;15.27;;;2.50;;
5277;SDS011;2662;51.194;6.614;2022-10-22T08:32:46;6.73;;;1.73;;
5277;SDS011;2662;51.194;6.614;2022-10-22T08:35:13;6.23;;;2.00;;
5277;SDS011;2662;51.194;6.614;2022-10-22T08:37:40;10.30;;;2.10;;
5277;SDS011;2662;51.194;6.614;2022-10-22T08:40:07;4.93;;;1.87;;
5277;SDS011;2662;51.194;6.614;2022-10-22T08:45:33;11.67;;;2.30;;
5277;SDS011;2662;51.194;6.614;2022-10-22T08:48:09;6.93;;;1.80;;
5277;SDS011;2662;51.194;6.614;2022-10-22T08:50:45;12.67;;;1.60;;
5277;SDS011;2662;51.194;6.614;2022-10-22T08:53:16;10.40;;;1.87;;
5277;SDS011;2662;51.194;6.614;2022-10-22T08:55:44;6.77;;;1.40;;
5277;SDS011;2662;51.194;6.614;2022-10-22T08:58:15;11.93;;;1.87;;
5277;SDS011;2662;51.194;6.614;2022-10-22T09:00:50;7.07;;;1.57;;
5277;SDS011;2662;51.194;6.614;2022-10-22T09:03:30;5.07;;;1.80;;
5277;SDS011;2662;51.194;6.614;2022-10-22T09:06:06;4.50;;;1.47;;
5277;SDS011;2662;51.194;6.614;2022-10-22T09:08:37;9.90;;;1.87;;
5277;SDS011;2662;51.194;6.614;2022-10-22T09:11:06;4.97;;;1.53;;
5277;SDS011;2662;51.194;6.614;2022-10-22T09:13:41;6.83;;;2.60;;
5277;SDS011;2662;51.194;6.614;2022-10-22T09:16:14;3.13;;;1.40;;
5277;SDS011;2662;51.194;6.614;2022-10-22T09:18:52;9.50;;;2.00;;
5277;SDS011;2662;51.194;6.614;2022-10-22T09:21:31;6.77;;;1.87;;
5277;SDS011;2662;51.194;6.614;2022-10-22T09:24:04;5.70;;;1.50;;
5277;SDS011;2662;51.194;6.614;2022-10-22T09:26:36;2.03;;;1.30;;
5277;SDS011;2662;51.194;6.614;2022-10-22T09:29:06;10.87;;;1.73;;
5277;SDS011;2662;51.194;6.614;2022-10-22T09:31:39;9.73;;;2.23;;
5277;SDS011;2662;51.194;6.614;2022-10-22T09:34:07;6.93;;;2.10;;
5277;SDS011;2662;51.194;6.614;2022-10-22T09:36:35;4.40;;;1.10;;
5277;SDS011;2662;51.194;6.614;2022-10-22T09:39:03;9.37;;;2.20;;
5277;SDS011;2662;51.194;6.614;2022-10-22T09:41:45;2.63;;;1.40;;
5277;SDS011;2662;51.194;6.614;2022-10-22T09:44:12;5.70;;;1.40;;
5277;SDS011;2662;51.194;6.614;2022-10-22T09:46:39;4.63;;;1.40;;
5277;SDS011;2662;51.194;6.614;2022-10-22T09:49:11;3.83;;;1.30;;
5277;SDS011;2662;51.194;6.614;2022-10-22T09:51:41;9.53;;;1.33;;
5277;SDS011;2662;51.194;6.614;2022-10-22T09:54:17;3.17;;;1.50;;
5277;SDS011;2662;51.194;6.614;2022-10-22T09:56:46;7.43;;;1.50;;
5277;SDS011;2662;51.194;6.614;2022-10-22T09:59:24;4.17;;;1.10;;
5277;SDS011;2662;51.194;6.614;2022-10-22T10:01:57;6.90;;;1.17;;
5277;SDS011;2662;51.194;6.614;2022-10-22T10:04:27;5.73;;;1.43;;
5277;SDS011;2662;51.194;6.614;2022-10-22T10:06:59;7.13;;;1.30;;
5277;SDS011;2662;51.194;6.614;2022-10-22T10:09:25;5.40;;;1.70;;
5277;SDS011;2662;51.194;6.614;2022-10-22T10:11:56;4.30;;;1.10;;
5277;SDS011;2662;51.194;6.614;2022-10-22T10:14:33;7.33;;;1.60;;
5277;SDS011;2662;51.194;6.614;2022-10-22T10:17:11;4.93;;;1.63;;
5277;SDS011;2662;51.194;6.614;2022-10-22T10:19:51;3.23;;;1.47;;
5277;SDS011;2662;51.194;6.614;2022-10-22T10:22:29;2.87;;;1.30;;
5277;SDS011;2662;51.194;6.614;2022-10-22T10:25:19;2.07;;;1.43;;
5277;SDS011;2662;51.194;6.614;2022-10-22T10:27:59;5.90;;;1.40;;
5277;SDS011;2662;51.194;6.614;2022-10-22T10:30:31;5.87;;;1.80;;
5277;SDS011;2662;51.194;6.614;2022-10-22T10:33:07;4.13;;;1.20;;
5277;SDS011;2662;51.194;6.614;2022-10-22T10:35:44;4.30;;;1.10;;
5277;SDS011;2662;51.194;6.614;2022-10-22T10:38:22;6.80;;;1.17;;
5277;SDS011;2662;51.194;6.614;2022-10-22T10:41:01;10.03;;;1.27;;
5277;SDS011;2662;51.194;6.614;2022-10-22T10:43:40;12.10;;;1.90;;
5277;SDS011;2662;51.194;6.614;2022-10-22T10:46:19;5.00;;;1.13;;
5277;SDS011;2662;51.194;6.614;2022-10-22T10:48:52;2.43;;;1.13;;
5277;SDS011;2662;51.194;6.614;2022-10-22T10:51:33;4.13;;;1.50;;
5277;SDS011;2662;51.194;6.614;2022-10-22T10:54:15;4.00;;;1.20;;
5277;SDS011;2662;51.194;6.614;2022-10-22T10:56:49;6.43;;;1.37;;
5277;SDS011;2662;51.194;6.614;2022-10-22T10:59:21;3.90;;;1.07;;
5277;SDS011;2662;51.194;6.614;2022-10-22T11:02:30;2.13;;;1.00;;
5277;SDS011;2662;51.194;6.614;2022-10-22T11:08:03;3.17;;;1.17;;
5277;SDS011;2662;51.194;6.614;2022-10-22T11:10:37;2.43;;;1.10;;
5277;SDS011;2662;51.194;6.614;2022-10-22T11:13:08;7.40;;;1.53;;
5277;SDS011;2662;51.194;6.614;2022-10-22T11:15:40;5.93;;;1.60;;
5277;SDS011;2662;51.194;6.614;2022-10-22T11:18:14;7.43;;;1.00;;
5277;SDS011;2662;51.194;6.614;2022-10-22T11:20:47;2.63;;;0.90;;
5277;SDS011;2662;51.194;6.614;2022-10-22T11:23:22;4.23;;;1.70;;
5277;SDS011;2662;51.194;6.614;2022-10-22T11:25:53;4.70;;;1.47;;
5277;SDS011;2662;51.194;6.614;2022-10-22T11:28:20;4.40;;;1.47;;
5277;SDS011;2662;51.194;6.614;2022-10-22T11:30:55;4.30;;;1.17;;
5277;SDS011;2662;51.194;6.614;2022-10-22T11:33:27;4.17;;;1.17;;
5277;SDS011;2662;51.194;6.614;2022-10-22T11:36:03;2.77;;;0.90;;
5277;SDS011;2662;51.194;6.614;2022-10-22T11:38:32;5.10;;;1.27;;
5277;SDS011;2662;51.194;6.614;2022-10-22T11:41:01;9.10;;;1.10;;
5277;SDS011;2662;51.194;6.614;2022-10-22T11:43:30;7.40;;;1.20;;
5277;SDS011;2662;51.194;6.614;2022-10-22T11:46:01;3.37;;;1.20;;
5277;SDS011;2662;51.194;6.614;2022-10-22T11:48:35;5.30;;;0.87;;
5277;SDS011;2662;51.194;6.614;2022-10-22T11:51:03;1.57;;;0.70;;
5277;SDS011;2662;51.194;6.614;2022-10-22T11:53:56;4.77;;;1.10;;
5277;SDS011;2662;51.194;6.614;2022-10-22T11:56:24;6.67;;;1.70;;
5277;SDS011;2662;51.194;6.614;2022-10-22T11:58:53;5.80;;;1.60;;
5277;SDS011;2662;51.194;6.614;2022-10-22T12:01:21;6.37;;;1.00;;
5277;SDS011;2662;51.194;6.614;2022-10-22T12:03:51;1.50;;;1.00;;
5277;SDS011;2662;51.194;6.614;2022-10-22T12:06:20;2.37;;;1.17;;
5277;SDS011;2662;51.194;6.614;2022-10-22T12:08:56;7.83;;;0.90;;
5277;SDS011;2662;51.194;6.614;2022-10-22T12:11:25;12.07;;;1.40;;
5277;SDS011;2662;51.194;6.614;2022-10-22T12:14:12;3.30;;;1.40;;
5277;SDS011;2662;51.194;6.614;2022-10-22T12:16:44;12.40;;;1.70;;
5277;SDS011;2662;51.194;6.614;2022-10-22T12:19:14;2.00;;;0.83;;
5277;SDS011;2662;51.194;6.614;2022-10-22T12:21:44;15.47;;;1.60;;
5277;SDS011;2662;51.194;6.614;2022-10-22T12:24:16;3.90;;;1.10;;
5277;SDS011;2662;51.194;6.614;2022-10-22T12:26:44;4.97;;;1.07;;
5277;SDS011;2662;51.194;6.614;2022-10-22T12:29:14;6.33;;;0.90;;
5277;SDS011;2662;51.194;6.614;2022-10-22T12:31:42;4.70;;;1.20;;
5277;SDS011;2662;51.194;6.614;2022-10-22T12:34:12;6.43;;;1.20;;
5277;SDS011;2662;51.194;6.614;2022-10-22T12:36:42;3.30;;;1.10;;
5277;SDS011;2662;51.194;6.614;2022-10-22T12:39:11;3.10;;;1.00;;
5277;SDS011;2662;51.194;6.614;2022-10-22T12:41:40;9.63;;;1.50;;
5277;SDS011;2662;51.194;6.614;2022-10-22T12:44:09;0.83;;;0.80;;
5277;SDS011;2662;51.194;6.614;2022-10-22T12:46:37;3.07;;;0.90;;
5277;SDS011;2662;51.194;6.614;2022-10-22T12:49:04;3.17;;;1.03;;
5277;SDS011;2662;51.194;6.614;2022-10-22T12:51:35;1.40;;;0.90;;
5277;SDS011;2662;51.194;6.614;2022-10-22T12:54:03;3.90;;;0.93;;
5277;SDS011;2662;51.194;6.614;2022-10-22T12:56:33;3.20;;;1.20;;
5277;SDS011;2662;51.194;6.614;2022-10-22T12:59:04;6.07;;;1.40;;
5277;SDS011;2662;51.194;6.614;2022-10-22T13:01:33;8.40;;;1.10;;
5277;SDS011;2662;51.194;6.614;2022-10-22T13:04:06;4.43;;;1.00;;
5277;SDS011;2662;51.194;6.614;2022-10-22T13:06:48;8.93;;;1.20;;
5277;SDS011;2662;51.194;6.614;2022-10-22T13:09:19;6.57;;;1.27;;
5277;SDS011;2662;51.194;6.614;2022-10-22T13:11:48;2.43;;;0.70;;
5277;SDS011;2662;51.194;6.614;2022-10-22T13:14:26;2.50;;;1.03;;
5277;SDS011;2662;51.194;6.614;2022-10-22T13:17:05;4.10;;;1.00;;
5277;SDS011;2662;51.194;6.614;2022-10-22T13:19:38;1.93;;;0.70;;
5277;SDS011;2662;51.194;6.614;2022-10-22T13:22:27;5.70;;;0.90;;
5277;SDS011;2662;51.194;6.614;2022-10-22T13:24:56;4.70;;;1.00;;
5277;SDS011;2662;51.194;6.614;2022-10-22T13:27:24;2.87;;;0.90;;
5277;SDS011;2662;51.194;6.614;2022-10-22T13:29:53;5.07;;;1.10;;
5277;SDS011;2662;51.194;6.614;2022-10-22T13:32:26;4.10;;;0.90;;
5277;SDS011;2662;51.194;6.614;2022-10-22T13:34:56;5.13;;;0.90;;
5277;SDS011;2662;51.194;6.614;2022-10-22T13:37:24;2.10;;;0.70;;
5277;SDS011;2662;51.194;6.614;2022-10-22T13:39:51;4.77;;;1.10;;
5277;SDS011;2662;51.194;6.614;2022-10-22T13:42:18;6.57;;;1.20;;
5277;SDS011;2662;51.194;6.614;2022-10-22T13:44:45;3.53;;;0.60;;
5277;SDS011;2662;51.194;6.614;2022-10-22T13:47:16;4.63;;;1.03;;
5277;SDS011;2662;51.194;6.614;2022-10-22T13:49:49;3.77;;;1.23;;
5277;SDS011;2662;51.194;6.614;2022-10-22T13:52:21;2.97;;;0.90;;
5277;SDS011;2662;51.194;6.614;2022-10-22T13:54:58;2.63;;;0.80;;
5277;SDS011;2662;51.194;6.614;2022-10-22T13:57:25;5.13;;;0.80;;
5277;SDS011;2662;51.194;6.614;2022-10-22T13:59:51;5.77;;;1.10;;
5277;SDS011;2662;51.194;6.614;2022-10-22T14:02:19;4.73;;;0.97;;
5277;SDS011;2662;51.194;6.614;2022-10-22T14:04:48;4.40;;;1.10;;
5277;SDS011;2662;51.194;6.614;2022-10-22T14:07:16;8.53;;;1.20;;
5277;SDS011;2662;51.194;6.614;2022-10-22T14:09:43;7.03;;;1.10;;
5277;SDS011;2662;51.194;6.614;2022-10-22T14:12:10;2.97;;;0.93;;
5277;SDS011;2662;51.194;6.614;2022-10-22T14:14:38;5.07;;;0.90;;
5277;SDS011;2662;51.194;6.614;2022-10-22T14:17:07;4.60;;;1.47;;
5277;SDS011;2662;51.194;6.614;2022-10-22T14:19:38;4.03;;;0.87;;
5277;SDS011;2662;51.194;6.614;2022-10-22T14:22:06;1.20;;;0.80;;
5277;SDS011;2662;51.194;6.614;2022-10-22T14:24:34;7.50;;;1.00;;
5277;SDS011;2662;51.194;6.614;2022-10-22T14:27:01;2.40;;;0.70;;
5277;SDS011;2662;51.194;6.614;2022-10-22T14:29:27;7.20;;;1.30;;
5277;SDS011;2662;51.194;6.614;2022-10-22T14:31:54;2.73;;;1.00;;
5277;SDS011;2662;51.194;6.614;2022-10-22T14:34:21;1.70;;;0.73;;
5277;SDS011;2662;51.194;6.614;2022-10-22T14:36:49;2.40;;;0.80;;
5277;SDS011;2662;51.194;6.614;2022-10-22T14:39:16;2.00;;;0.97;;
5277;SDS011;2662;51.194;6.614;2022-10-22T14:41:43;2.80;;;0.80;;
5277;SDS011;2662;51.194;6.614;2022-10-22T14:44:10;4.37;;;1.27;;
5277;SDS011;2662;51.194;6.614;2022-10-22T14:46:38;3.10;;;0.93;;
5277;SDS011;2662;51.194;6.614;2022-10-22T14:49:06;5.17;;;1.40;;
5277;SDS011;2662;51.194;6.614;2022-10-22T14:51:33;2.33;;;1.13;;
5277;SDS011;2662;51.194;6.614;2022-10-22T14:54:01;6.13;;;0.80;;
5277;SDS011;2662;51.194;6.614;2022-10-22T14:56:28;1.73;;;1.00;;
5277;SDS011;2662;51.194;6.614;2022-10-22T14:58:54;2.97;;;1.10;;
5277;SDS011;2662;51.194;6.614;2022-10-22T15:01:21;6.77;;;0.70;;
5277;SDS011;2662;51.194;6.614;2022-10-22T15:03:48;1.53;;;0.80;;
5277;SDS011;2662;51.194;6.614;2022-10-22T15:06:14;6.07;;;1.00;;
5277;SDS011;2662;51.194;6.614;2022-10-22T15:08:41;3.03;;;0.80;;
5277;SDS011;2662;51.194;6.614;2022-10-22T15:11:11;6.63;;;1.20;;
5277;SDS011;2662;51.194;6.614;2022-10-22T15:13:38;3.17;;;1.20;;
5277;SDS011;2662;51.194;6.614;2022-10-22T15:16:06;2.57;;;1.03;;
5277;SDS011;2662;51.194;6.614;2022-10-22T15:18:34;6.47;;;1.27;;
5277;SDS011;2662;51.194;6.614;2022-10-22T15:21:01;5.27;;;1.43;;
5277;SDS011;2662;51.194;6.614;2022-10-22T15:23:29;4.07;;;1.00;;
5277;SDS011;2662;51.194;6.614;2022-10-22T15:25:56;3.30;;;0.90;;
5277;SDS011;2662;51.194;6.614;2022-10-22T15:28:24;5.00;;;1.40;;
5277;SDS011;2662;51.194;6.614;2022-10-22T15:30:51;5.93;;;1.40;;
5277;SDS011;2662;51.194;6.614;2022-10-22T15:33:19;8.33;;;0.90;;